Terminal Aerodrome Forecast
Issued by NWS

Home | Current Version | Previous Version | Graphics & Text | Print | Product List | Glossary On
Versions: 1 2 3 4 5 6 7 8 9 10 11 12 13 14 15
000
FTUS43 KMPX 200520
TAFRWF
TAF
KRWF 200520Z 2006/2106 05012G20KT P6SM SCT040 BKN060
     FM201200 08010KT P6SM BKN080
     FM210300 11004KT P6SM BKN060=

USA.gov is the U.S. government's official web portal to all federal, state and local government web resources and services.